Time,TemperatureF,DewpointF,PressureIn,WindDirection,WindDirectionDegrees,WindSpeedMPH,WindSpeedGustMPH,Humidity,HourlyPrecipIn,Conditions,Clouds,dailyrainin,SoftwareType,DateUTC
2013-03-19 00:00:00,41.4,35.4,29.70,SSW,195,8.1,8.1,79,0.00,CLR,,0.44,WeatherDisplay:10.37,2013-03-19 04:00:00,
2013-03-19 00:02:00,41.4,35.7,29.70,SSW,202,8.1,8.1,80,0.00,RA,,0.00,WeatherDisplay:10.37,2013-03-19 04:02:00,
2013-03-19 00:07:00,41.5,35.8,29.70,SSW,204,8.1,8.1,80,0.00,RA,,0.00,WeatherDisplay:10.37,2013-03-19 04:07:00,
2013-03-19 00:12:00,41.5,35.8,29.70,SSW,202,10.4,10.4,80,0.00,CLR,,0.00,WeatherDisplay:10.37,2013-03-19 04:12:00,
2013-03-19 00:17:00,41.7,36.0,29.70,SSW,198,10.4,10.4,80,0.00,CLR,,0.00,WeatherDisplay:10.37,2013-03-19 04:17:00,
2013-03-19 00:22:00,41.7,36.3,29.70,SSW,207,9.2,9.2,81,0.00,CLR,,0.00,WeatherDisplay:10.37,2013-03-19 04:22:00,
2013-03-19 00:27:00,41.7,36.3,29.70,SSW,205,9.2,9.2,81,0.00,CLR,,0.00,WeatherDisplay:10.37,2013-03-19 04:27:00,
2013-03-19 00:32:00,41.7,36.3,29.70,SSW,192,9.2,9.2,81,0.01,RA,,0.01,WeatherDisplay:10.37,2013-03-19 04:32:00,
2013-03-19 00:37:00,41.7,36.6,29.70,SW,219,5.8,5.8,82,0.01,,,0.01,WeatherDisplay:10.37,2013-03-19 04:37:00,
2013-03-19 00:42:00,41.5,36.4,29.70,SSW,202,5.8,5.8,82,0.01,CLR,,0.01,WeatherDisplay:10.37,2013-03-19 04:42:00,
2013-03-19 00:47:00,41.6,36.5,29.70,SW,218,5.8,5.8,82,0.01,CLR,,0.01,WeatherDisplay:10.37,2013-03-19 04:47:00,
2013-03-19 00:52:00,41.6,36.8,29.70,SSW,199,7.0,7.0,83,0.01,CLR,,0.01,WeatherDisplay:10.37,2013-03-19 04:52:00,
2013-03-19 00:57:00,41.8,37.0,29.70,SSW,207,9.2,9.2,83,0.01,CLR,,0.01,WeatherDisplay:10.37,2013-03-19 04:57:00,
2013-03-19 01:02:00,42.0,37.2,29.70,SW,218,7.0,7.0,83,0.02,RA,,0.02,WeatherDisplay:10.37,2013-03-19 05:02:00,
2013-03-19 01:07:00,42.0,37.5,29.70,SSW,203,7.0,7.0,84,0.02,RA,,0.02,WeatherDisplay:10.37,2013-03-19 05:07:00,
2013-03-19 01:12:00,42.0,37.5,29.70,SW,217,7.0,7.0,84,0.02,,,0.02,WeatherDisplay:10.37,2013-03-19 05:12:00,
2013-03-19 01:17:00,42.1,37.6,29.70,SSW,210,5.0,5.0,84,0.03,RA,,0.03,WeatherDisplay:10.37,2013-03-19 05:17:00,
2013-03-19 01:22:00,41.9,37.4,29.70,SSW,213,5.0,5.0,84,0.03,RA,,0.03,WeatherDisplay:10.37,2013-03-19 05:22:00,
2013-03-19 01:27:00,42.1,37.6,29.70,SW,222,6.0,6.0,84,0.02,,,0.03,WeatherDisplay:10.37,2013-03-19 05:27:00,
2013-03-19 01:32:00,42.2,37.7,29.70,SW,223,7.0,7.0,84,0.02,CLR,,0.03,WeatherDisplay:10.37,2013-03-19 05:32:00,
2013-03-19 01:37:00,42.4,38.2,29.70,SSW,213,9.0,9.0,85,0.02,CLR,,0.03,WeatherDisplay:10.37,2013-03-19 05:37:00,
2013-03-19 01:42:00,42.5,38.3,29.70,SW,225,8.1,8.1,85,0.02,CLR,,0.03,WeatherDisplay:10.37,2013-03-19 05:42:00,
2013-03-19 01:47:00,42.5,38.3,29.70,SW,223,7.0,7.0,85,0.02,CLR,,0.03,WeatherDisplay:10.37,2013-03-19 05:47:00,
2013-03-19 01:52:00,42.7,38.5,29.70,WSW,244,11.5,11.5,85,0.02,CLR,,0.03,WeatherDisplay:10.37,2013-03-19 05:52:00,
2013-03-19 01:57:00,42.7,38.5,29.70,WSW,246,9.0,9.0,85,0.02,CLR,,0.03,WeatherDisplay:10.37,2013-03-19 05:57:00,
2013-03-19 02:02:00,43.3,39.1,29.70,WSW,252,11.5,11.5,85,0.01,CLR,,0.03,WeatherDisplay:10.37,2013-03-19 06:02:00,
2013-03-19 02:07:00,43.7,39.8,29.71,WSW,239,15.0,15.0,86,0.01,CLR,,0.03,WeatherDisplay:10.37,2013-03-19 06:07:00,
2013-03-19 02:12:00,44.1,40.2,29.70,WSW,245,14.0,14.0,86,0.01,CLR,,0.03,WeatherDisplay:10.37,2013-03-19 06:12:00,
2013-03-19 02:17:00,44.2,40.3,29.71,West,277,17.0,17.0,86,0.01,RA,,0.04,WeatherDisplay:10.37,2013-03-19 06:17:00,
2013-03-19 02:22:00,44.2,40.3,29.72,WNW,295,15.0,15.0,86,0.01,RA,,0.04,WeatherDisplay:10.37,2013-03-19 06:22:00,
2013-03-19 02:27:00,43.5,39.6,29.71,West,261,24.0,24.0,86,0.01,,,0.04,WeatherDisplay:10.37,2013-03-19 06:27:00,
2013-03-19 02:32:00,42.7,38.5,29.72,West,277,22.0,22.0,85,0.01,CLR,,0.04,WeatherDisplay:10.37,2013-03-19 06:32:00,
2013-03-19 02:37:00,42.5,38.3,29.72,West,277,21.0,21.0,85,0.01,CLR,,0.04,WeatherDisplay:10.37,2013-03-19 06:37:00,
2013-03-19 02:42:00,42.4,38.2,29.72,WNW,295,12.7,12.7,85,0.01,CLR,,0.04,WeatherDisplay:10.37,2013-03-19 06:42:00,
2013-03-19 02:47:00,42.3,38.1,29.72,West,266,12.0,12.0,85,0.01,CLR,,0.04,WeatherDisplay:10.37,2013-03-19 06:47:00,
2013-03-19 02:52:00,42.2,38.0,29.73,WNW,296,11.0,11.0,85,0.01,CLR,,0.04,WeatherDisplay:10.37,2013-03-19 06:52:00,
2013-03-19 02:57:00,41.7,37.5,29.73,West,261,15.0,15.0,85,0.01,CLR,,0.04,WeatherDisplay:10.37,2013-03-19 06:57:00,
2013-03-19 03:02:00,41.3,37.1,29.73,NW,316,8.1,8.1,85,0.01,CLR,,0.04,WeatherDisplay:10.37,2013-03-19 07:02:00,
2013-03-19 03:07:00,41.0,38.3,29.73,NW,308,15.0,15.0,90,0.01,CLR,,0.04,WeatherDisplay:10.37,2013-03-19 07:07:00,
2013-03-19 03:12:00,40.7,36.5,29.73,WNW,303,6.0,6.0,85,0.01,CLR,,0.04,WeatherDisplay:10.37,2013-03-19 07:12:00,
2013-03-19 03:17:00,40.5,36.3,29.73,West,275,8.0,8.0,85,0.00,CLR,,0.04,WeatherDisplay:10.37,2013-03-19 07:17:00,
2013-03-19 03:22:00,40.4,36.2,29.73,West,271,10.4,10.4,85,0.00,CLR,,0.04,WeatherDisplay:10.37,2013-03-19 07:22:00,
2013-03-19 03:27:00,40.3,36.1,29.74,West,261,14.0,14.0,85,0.00,CLR,,0.04,WeatherDisplay:10.37,2013-03-19 07:27:00,
2013-03-19 03:32:00,40.2,36.1,29.74,WSW,256,17.3,17.3,85,0.00,CLR,,0.04,WeatherDisplay:10.37,2013-03-19 07:32:00,
2013-03-19 03:37:00,40.0,35.9,29.74,West,272,16.1,16.1,85,0.00,CLR,,0.04,WeatherDisplay:10.37,2013-03-19 07:37:00,
2013-03-19 03:42:00,40.0,35.9,29.74,WSW,252,16.1,16.1,85,0.00,CLR,,0.04,WeatherDisplay:10.37,2013-03-19 07:42:00,
2013-03-19 03:47:00,40.0,35.9,29.74,WSW,241,12.0,12.0,85,0.00,CLR,,0.04,WeatherDisplay:10.37,2013-03-19 07:47:00,
2013-03-19 03:52:00,39.9,35.5,29.74,West,267,16.1,16.1,84,0.00,CLR,,0.04,WeatherDisplay:10.37,2013-03-19 07:52:00,
2013-03-19 03:57:00,39.9,35.5,29.75,West,277,15.0,15.0,84,0.00,CLR,,0.04,WeatherDisplay:10.37,2013-03-19 07:57:00,
2013-03-19 04:02:00,39.8,35.4,29.75,West,261,13.0,13.0,84,0.00,CLR,,0.04,WeatherDisplay:10.37,2013-03-19 08:02:00,
2013-03-19 04:07:00,39.8,35.4,29.75,NNW,331,9.2,9.2,84,0.00,CLR,,0.04,WeatherDisplay:10.37,2013-03-19 08:07:00,
2013-03-19 04:12:00,39.5,35.1,29.75,WNW,285,11.0,11.0,84,0.00,CLR,,0.04,WeatherDisplay:10.37,2013-03-19 08:12:00,
2013-03-19 04:17:00,39.0,34.3,29.76,North,355,17.3,17.3,83,0.00,CLR,,0.04,WeatherDisplay:10.37,2013-03-19 08:17:00,
2013-03-19 04:22:00,38.4,33.7,29.76,West,261,16.1,16.1,83,0.00,CLR,,0.04,WeatherDisplay:10.37,2013-03-19 08:22:00,
2013-03-19 04:27:00,38.1,33.4,29.77,WSW,252,12.0,12.0,83,0.00,CLR,,0.04,WeatherDisplay:10.37,2013-03-19 08:27:00,
2013-03-19 04:32:00,37.9,32.9,29.77,WSW,257,17.0,17.0,82,0.00,CLR,,0.04,WeatherDisplay:10.37,2013-03-19 08:32:00,
2013-03-19 04:37:00,37.7,32.4,29.77,SW,232,14.0,14.0,81,0.00,CLR,,0.04,WeatherDisplay:10.37,2013-03-19 08:37:00,
2013-03-19 04:42:00,37.5,31.9,29.77,West,259,14.0,14.0,80,0.00,CLR,,0.04,WeatherDisplay:10.37,2013-03-19 08:42:00,
2013-03-19 04:48:00,37.4,31.5,29.77,West,265,11.5,11.5,79,0.00,CLR,,0.04,WeatherDisplay:10.37,2013-03-19 08:48:00,
2013-03-19 04:53:00,37.3,31.4,29.77,West,279,18.0,18.0,79,0.00,CLR,,0.04,WeatherDisplay:10.37,2013-03-19 08:53:00,
2013-03-19 04:58:00,37.1,30.9,29.78,West,281,18.4,18.4,78,0.00,CLR,,0.04,WeatherDisplay:10.37,2013-03-19 08:58:00,
2013-03-19 05:03:00,37.0,30.8,29.78,NW,304,14.0,14.0,78,0.00,CLR,,0.04,WeatherDisplay:10.37,2013-03-19 09:03:00,
2013-03-19 05:08:00,36.8,30.6,29.79,WNW,290,15.0,15.0,78,0.00,CLR,,0.04,WeatherDisplay:10.37,2013-03-19 09:08:00,
2013-03-19 05:13:00,36.7,30.5,29.79,West,275,13.0,13.0,78,0.00,CLR,,0.04,WeatherDisplay:10.37,2013-03-19 09:13:00,
2013-03-19 05:18:00,36.5,30.6,29.79,West,265,16.0,16.0,79,0.00,CLR,,0.04,WeatherDisplay:10.37,2013-03-19 09:18:00,
2013-03-19 05:23:00,36.4,30.5,29.79,West,267,15.0,15.0,79,0.00,CLR,,0.04,WeatherDisplay:10.37,2013-03-19 09:23:00,
2013-03-19 05:28:00,36.4,30.5,29.80,SW,234,13.0,13.0,79,0.00,CLR,,0.04,WeatherDisplay:10.37,2013-03-19 09:28:00,
2013-03-19 05:33:00,36.4,30.5,29.80,West,259,17.0,17.0,79,0.00,CLR,,0.04,WeatherDisplay:10.37,2013-03-19 09:33:00,
2013-03-19 05:38:00,36.4,30.5,29.80,West,259,18.4,18.4,79,0.00,CLR,,0.04,WeatherDisplay:10.37,2013-03-19 09:38:00,
2013-03-19 05:43:00,36.5,30.6,29.80,West,267,19.6,19.6,79,0.00,CLR,,0.04,WeatherDisplay:10.37,2013-03-19 09:43:00,
2013-03-19 05:48:00,36.5,30.3,29.80,SW,227,20.0,20.0,78,0.00,CLR,,0.04,WeatherDisplay:10.37,2013-03-19 09:48:00,
2013-03-19 05:53:00,36.6,29.7,29.80,West,259,26.5,26.5,76,0.00,CLR,,0.04,WeatherDisplay:10.37,2013-03-19 09:53:00,
2013-03-19 05:55:00,37.9,19.9,29.83,WNW,287,14.0,21.0,48,0.00,RA,RA,0.04,WeatherDisplay:10.37,2013-03-19 09:55:00,
2013-03-19 05:58:00,36.7,29.8,29.80,WSW,242,20.0,20.0,76,0.00,CLR,,0.04,WeatherDisplay:10.37,2013-03-19 09:58:00,
2013-03-19 06:00:00,37.6,20.1,29.83,WNW,282,16.0,24.0,49,0.00,RA,RA,0.04,WeatherDisplay:10.37,2013-03-19 10:00:00,
2013-03-19 06:03:00,36.7,29.5,29.80,West,259,21.0,21.0,75,0.00,CLR,,0.04,WeatherDisplay:10.37,2013-03-19 10:03:00,
2013-03-19 06:05:00,38.1,20.6,29.83,West,273,17.0,31.0,49,0.00,CLR,CLR,0.04,WeatherDisplay:10.37,2013-03-19 10:05:00,
2013-03-19 06:08:00,36.8,29.0,29.80,WSW,257,20.7,20.7,73,0.00,CLR,,0.04,WeatherDisplay:10.37,2013-03-19 10:08:00,
2013-03-19 06:10:00,39.3,21.7,29.83,West,267,20.0,31.0,49,0.00,CLR,CLR,0.04,WeatherDisplay:10.37,2013-03-19 10:10:00,
2013-03-19 06:13:00,36.8,28.6,29.81,WSW,246,21.0,21.0,72,0.00,CLR,,0.04,WeatherDisplay:10.37,2013-03-19 10:13:00,
2013-03-19 06:15:00,38.5,20.5,29.83,West,263,16.0,32.0,48,0.00,CLR,CLR,0.04,WeatherDisplay:10.37,2013-03-19 10:15:00,
2013-03-19 06:18:00,36.8,28.6,29.81,WSW,255,15.0,15.0,72,0.00,CLR,,0.04,WeatherDisplay:10.37,2013-03-19 10:18:00,
2013-03-19 06:20:00,38.2,20.7,29.82,West,261,28.0,45.0,49,0.00,CLR,CLR,0.04,WeatherDisplay:10.37,2013-03-19 10:20:00,
2013-03-19 06:23:00,36.7,28.5,29.81,WSW,249,24.0,24.0,72,0.00,CLR,,0.04,WeatherDisplay:10.37,2013-03-19 10:23:00,
2013-03-19 06:25:00,38.1,20.6,29.83,West,260,39.0,55.0,49,0.00,CLR,CLR,0.04,WeatherDisplay:10.37,2013-03-19 10:25:00,
2013-03-19 06:28:00,36.6,28.4,29.81,WSW,252,18.4,18.4,72,0.00,CLR,,0.04,WeatherDisplay:10.37,2013-03-19 10:28:00,
2013-03-19 06:30:00,37.5,19.6,29.84,West,266,26.0,55.0,48,0.00,CLR,CLR,0.04,WeatherDisplay:10.37,2013-03-19 10:30:00,
2013-03-19 06:33:00,36.6,28.1,29.81,WSW,250,17.3,17.3,71,0.00,CLR,,0.04,WeatherDisplay:10.37,2013-03-19 10:33:00,
2013-03-19 06:35:00,37.8,20.8,29.84,West,268,25.0,42.0,50,0.00,CLR,CLR,0.04,WeatherDisplay:10.37,2013-03-19 10:35:00,
2013-03-19 06:38:00,36.6,28.1,29.81,WSW,251,15.0,15.0,71,0.00,CLR,,0.04,WeatherDisplay:10.37,2013-03-19 10:38:00,
2013-03-19 06:40:00,38.1,20.1,29.84,West,268,20.0,36.0,48,0.00,CLR,CLR,0.04,WeatherDisplay:10.37,2013-03-19 10:40:00,
2013-03-19 06:43:00,36.5,28.0,29.81,SSW,211,19.6,19.6,71,0.00,CLR,,0.04,WeatherDisplay:10.37,2013-03-19 10:43:00,
2013-03-19 06:48:00,36.5,28.0,29.82,SW,234,20.7,20.7,71,0.00,CLR,,0.04,WeatherDisplay:10.37,2013-03-19 10:48:00,
2013-03-19 06:53:00,36.5,28.0,29.82,SW,228,13.8,13.8,71,0.00,CLR,,0.04,WeatherDisplay:10.37,2013-03-19 10:53:00,
2013-03-19 06:58:00,36.5,28.0,29.82,WSW,242,16.0,16.0,71,0.00,CLR,,0.04,WeatherDisplay:10.37,2013-03-19 10:58:00,
2013-03-19 07:03:00,36.4,27.9,29.83,WSW,257,16.1,16.1,71,0.00,CLR,,0.04,WeatherDisplay:10.37,2013-03-19 11:03:00,
2013-03-19 07:08:00,36.5,28.0,29.82,West,276,12.7,12.7,71,0.00,CLR,,0.04,WeatherDisplay:10.37,2013-03-19 11:08:00,
2013-03-19 07:13:00,36.5,28.0,29.82,WSW,250,14.0,14.0,71,0.00,CLR,,0.04,WeatherDisplay:10.37,2013-03-19 11:13:00,
2013-03-19 07:18:00,36.4,27.9,29.82,WSW,246,11.5,11.5,71,0.00,CLR,,0.04,WeatherDisplay:10.37,2013-03-19 11:18:00,
2013-03-19 07:23:00,36.3,27.8,29.82,SW,228,9.2,9.2,71,0.00,CLR,,0.04,WeatherDisplay:10.37,2013-03-19 11:23:00,
2013-03-19 07:28:00,36.2,28.0,29.82,WSW,241,9.2,9.2,72,0.00,CLR,,0.04,WeatherDisplay:10.37,2013-03-19 11:28:00,
2013-03-19 07:33:00,36.1,27.9,29.82,SSW,211,8.1,8.1,72,0.00,CLR,,0.04,WeatherDisplay:10.37,2013-03-19 11:33:00,
2013-03-19 07:38:00,36.1,27.6,29.82,SSW,201,15.0,15.0,71,0.00,CLR,,0.04,WeatherDisplay:10.37,2013-03-19 11:38:00,
2013-03-19 07:43:00,36.2,27.4,29.82,SW,227,17.3,17.3,70,0.00,CLR,,0.04,WeatherDisplay:10.37,2013-03-19 11:43:00,
2013-03-19 07:48:00,36.4,27.5,29.82,SSW,211,14.0,14.0,70,0.00,CLR,,0.04,WeatherDisplay:10.37,2013-03-19 11:48:00,
2013-03-19 07:53:00,36.3,27.4,29.82,SW,217,16.1,16.1,70,0.00,CLR,,0.04,WeatherDisplay:10.37,2013-03-19 11:53:00,
2013-03-19 07:58:00,36.3,27.4,29.82,SW,236,18.0,18.0,70,0.00,CLR,,0.04,WeatherDisplay:10.37,2013-03-19 11:58:00,
2013-03-19 08:03:00,36.5,27.6,29.82,SW,222,17.3,17.3,70,0.00,CLR,,0.04,WeatherDisplay:10.37,2013-03-19 12:03:00,
2013-03-19 08:08:00,36.6,27.4,29.81,SW,227,20.7,20.7,69,0.00,CLR,,0.04,WeatherDisplay:10.37,2013-03-19 12:08:00,
2013-03-19 08:13:00,36.6,27.7,29.81,SW,223,19.6,19.6,70,0.00,CLR,,0.04,WeatherDisplay:10.37,2013-03-19 12:13:00,
2013-03-19 08:18:00,36.7,27.8,29.81,SW,221,16.1,16.1,70,0.00,CLR,,0.04,WeatherDisplay:10.37,2013-03-19 12:18:00,
2013-03-19 08:23:00,36.7,27.8,29.81,SW,226,22.0,22.0,70,0.00,CLR,,0.04,WeatherDisplay:10.37,2013-03-19 12:23:00,
2013-03-19 08:28:00,36.8,27.9,29.81,West,259,20.0,20.0,70,0.00,CLR,,0.04,WeatherDisplay:10.37,2013-03-19 12:28:00,
2013-03-19 08:33:00,36.9,27.7,29.81,SW,234,18.4,18.4,69,0.00,CLR,,0.04,WeatherDisplay:10.37,2013-03-19 12:33:00,
2013-03-19 08:38:00,36.9,27.7,29.81,SW,220,19.6,19.6,69,0.00,CLR,,0.04,WeatherDisplay:10.37,2013-03-19 12:38:00,
2013-03-19 08:43:00,36.9,27.7,29.81,SW,236,21.0,21.0,69,0.00,CLR,,0.04,WeatherDisplay:10.37,2013-03-19 12:43:00,
2013-03-19 08:48:00,36.9,27.7,29.80,WSW,252,21.9,21.9,69,0.00,CLR,,0.04,WeatherDisplay:10.37,2013-03-19 12:48:00,
2013-03-19 08:53:00,37.1,27.9,29.80,WSW,237,20.7,20.7,69,0.00,CLR,,0.04,WeatherDisplay:10.37,2013-03-19 12:53:00,
2013-03-19 08:58:00,37.2,28.0,29.80,SW,218,19.0,19.0,69,0.00,CLR,,0.04,WeatherDisplay:10.37,2013-03-19 12:58:00,
2013-03-19 09:03:00,37.3,27.7,29.80,SW,226,19.0,19.0,68,0.00,CLR,,0.04,WeatherDisplay:10.37,2013-03-19 13:03:00,
2013-03-19 09:08:00,37.5,27.9,29.79,SW,227,25.0,25.0,68,0.00,CLR,,0.04,WeatherDisplay:10.37,2013-03-19 13:08:00,
2013-03-19 09:13:00,37.8,27.8,29.79,SW,234,20.0,20.0,67,0.00,CLR,,0.04,WeatherDisplay:10.37,2013-03-19 13:13:00,
2013-03-19 09:18:00,37.8,27.8,29.79,WSW,243,23.0,23.0,67,0.00,CLR,,0.04,WeatherDisplay:10.37,2013-03-19 13:18:00,
2013-03-19 09:23:00,37.7,28.1,29.79,WSW,240,21.9,21.9,68,0.00,CLR,,0.04,WeatherDisplay:10.37,2013-03-19 13:23:00,
2013-03-19 09:28:00,37.8,28.5,29.79,SW,229,19.6,19.6,69,0.00,CLR,,0.04,WeatherDisplay:10.37,2013-03-19 13:28:00,
2013-03-19 09:33:00,38.0,28.4,29.79,WSW,242,19.6,19.6,68,0.00,CLR,,0.04,WeatherDisplay:10.37,2013-03-19 13:33:00,
2013-03-19 09:38:00,38.1,28.5,29.79,WSW,239,19.6,19.6,68,0.00,CLR,,0.04,WeatherDisplay:10.37,2013-03-19 13:38:00,
2013-03-19 09:43:00,38.3,29.0,29.79,WSW,250,17.3,17.3,69,0.00,CLR,,0.04,WeatherDisplay:10.37,2013-03-19 13:43:00,
2013-03-19 09:48:00,38.9,29.2,29.79,SW,214,21.0,21.0,68,0.00,CLR,,0.04,WeatherDisplay:10.37,2013-03-19 13:48:00,
2013-03-19 09:53:00,39.2,29.2,29.78,WSW,242,23.0,23.0,67,0.00,CLR,,0.04,WeatherDisplay:10.37,2013-03-19 13:53:00,
2013-03-19 09:58:00,38.9,28.5,29.78,SW,234,27.0,27.0,66,0.00,CLR,,0.04,WeatherDisplay:10.37,2013-03-19 13:58:00,
2013-03-19 10:03:00,38.4,28.0,29.78,WSW,256,27.6,27.6,66,0.00,,,0.04,WeatherDisplay:10.37,2013-03-19 14:03:00,
2013-03-19 10:08:00,38.3,28.3,29.78,SW,230,28.0,28.0,67,0.00,CLR,,0.04,WeatherDisplay:10.37,2013-03-19 14:08:00,
2013-03-19 10:13:00,38.8,28.8,29.78,WSW,240,28.0,28.0,67,0.00,CLR,,0.04,WeatherDisplay:10.37,2013-03-19 14:13:00,
2013-03-19 10:18:00,39.3,27.7,29.78,WSW,255,29.9,29.9,63,0.00,,,0.04,WeatherDisplay:10.37,2013-03-19 14:18:00,
2013-03-19 10:23:00,39.1,27.2,29.78,West,265,26.5,26.5,62,0.00,CLR,,0.04,WeatherDisplay:10.37,2013-03-19 14:23:00,
2013-03-19 10:28:00,38.9,27.0,29.78,WSW,256,32.2,32.2,62,0.00,CLR,,0.04,WeatherDisplay:10.37,2013-03-19 14:28:00,
2013-03-19 10:33:00,38.6,27.1,29.77,West,271,26.5,26.5,63,0.00,CLR,,0.04,WeatherDisplay:10.37,2013-03-19 14:33:00,
2013-03-19 10:38:00,38.6,27.8,29.77,SW,224,24.2,24.2,65,0.00,CLR,,0.04,WeatherDisplay:10.37,2013-03-19 14:38:00,
2013-03-19 10:43:00,38.5,28.1,29.77,West,260,26.0,26.0,66,0.00,CLR,,0.04,WeatherDisplay:10.37,2013-03-19 14:43:00,
2013-03-19 10:48:00,39.8,30.1,29.77,West,268,18.4,18.4,68,0.00,CLR,,0.04,WeatherDisplay:10.37,2013-03-19 14:48:00,
2013-03-19 10:53:00,40.4,29.6,29.77,WSW,238,31.1,31.1,65,0.00,CLR,,0.04,WeatherDisplay:10.37,2013-03-19 14:53:00,
2013-03-19 10:58:00,40.6,29.4,29.76,SW,233,27.6,27.6,64,0.00,CLR,,0.04,WeatherDisplay:10.37,2013-03-19 14:58:00,
2013-03-19 11:03:00,41.0,29.4,29.76,WSW,242,29.0,29.0,63,0.00,CLR,,0.04,WeatherDisplay:10.37,2013-03-19 15:03:00,
2013-03-19 11:08:00,40.4,28.4,29.76,SW,218,29.9,29.9,62,0.00,CLR,,0.04,WeatherDisplay:10.37,2013-03-19 15:08:00,
2013-03-19 11:13:00,40.4,28.8,29.76,WSW,238,38.0,38.0,63,0.00,,,0.04,WeatherDisplay:10.37,2013-03-19 15:13:00,
2013-03-19 11:18:00,40.6,29.4,29.77,WSW,242,24.0,24.0,64,0.00,CLR,,0.04,WeatherDisplay:10.37,2013-03-19 15:18:00,
2013-03-19 11:23:00,40.6,29.4,29.77,WSW,255,24.2,24.2,64,0.00,CLR,,0.04,WeatherDisplay:10.37,2013-03-19 15:23:00,
2013-03-19 11:28:00,40.0,28.4,29.77,WSW,258,22.0,22.0,63,0.00,CLR,,0.04,WeatherDisplay:10.37,2013-03-19 15:28:00,
2013-03-19 11:33:00,39.3,28.1,29.77,West,269,23.0,23.0,64,0.00,CLR,,0.04,WeatherDisplay:10.37,2013-03-19 15:33:00,
2013-03-19 11:38:00,39.7,28.9,29.76,WSW,257,22.0,22.0,65,0.00,CLR,,0.04,WeatherDisplay:10.37,2013-03-19 15:38:00,
2013-03-19 11:43:00,39.4,28.2,29.77,West,263,19.6,19.6,64,0.00,CLR,,0.04,WeatherDisplay:10.37,2013-03-19 15:43:00,
2013-03-19 11:48:00,39.8,28.6,29.76,WSW,256,32.2,32.2,64,0.00,CLR,,0.04,WeatherDisplay:10.37,2013-03-19 15:48:00,
2013-03-19 11:53:00,41.5,29.4,29.77,WSW,257,26.0,26.0,62,0.00,CLR,,0.04,WeatherDisplay:10.37,2013-03-19 15:53:00,
2013-03-19 11:58:00,42.4,29.9,29.77,West,269,25.3,25.3,61,0.00,CLR,,0.04,WeatherDisplay:10.37,2013-03-19 15:58:00,
2013-03-19 12:03:00,42.4,28.7,29.77,WSW,257,31.1,31.1,58,0.00,CLR,,0.04,WeatherDisplay:10.37,2013-03-19 16:03:00,
2013-03-19 12:08:00,41.2,27.5,29.76,WSW,244,32.2,32.2,58,0.00,,,0.04,WeatherDisplay:10.37,2013-03-19 16:08:00,
2013-03-19 12:13:00,41.0,26.5,29.76,West,261,29.0,29.0,56,0.00,,,0.04,WeatherDisplay:10.37,2013-03-19 16:13:00,
2013-03-19 12:18:00,41.3,27.6,29.76,WSW,254,29.0,29.0,58,0.00,CLR,,0.04,WeatherDisplay:10.37,2013-03-19 16:18:00,
2013-03-19 12:23:00,42.3,28.1,29.76,West,263,23.0,23.0,57,0.00,,,0.04,WeatherDisplay:10.37,2013-03-19 16:23:00,
2013-03-19 12:28:00,43.0,28.8,29.76,WSW,246,33.4,33.4,57,0.00,CLR,,0.04,WeatherDisplay:10.37,2013-03-19 16:28:00,
2013-03-19 12:33:00,43.2,27.2,29.75,West,263,38.0,38.0,53,0.00,,,0.04,WeatherDisplay:10.37,2013-03-19 16:33:00,
2013-03-19 12:38:00,42.7,27.6,29.76,WNW,290,27.0,27.0,55,0.00,CLR,,0.04,WeatherDisplay:10.37,2013-03-19 16:38:00,
2013-03-19 12:43:00,42.5,27.9,29.76,West,280,23.0,23.0,56,0.00,CLR,,0.04,WeatherDisplay:10.37,2013-03-19 16:43:00,
2013-03-19 12:48:00,42.3,26.4,29.76,West,277,27.0,27.0,53,0.00,CLR,,0.04,WeatherDisplay:10.37,2013-03-19 16:48:00,
2013-03-19 12:53:00,41.9,26.4,29.76,West,279,23.0,23.0,54,0.00,CLR,,0.04,WeatherDisplay:10.37,2013-03-19 16:53:00,
2013-03-19 12:58:00,41.3,25.0,29.76,West,265,34.5,34.5,52,0.00,,,0.04,WeatherDisplay:10.37,2013-03-19 16:58:00,
2013-03-19 13:03:00,41.1,23.4,29.76,WSW,242,47.2,47.2,49,0.00,,,0.04,WeatherDisplay:10.37,2013-03-19 17:03:00,
2013-03-19 13:08:00,42.2,24.4,29.77,West,267,38.0,38.0,49,0.00,,,0.04,WeatherDisplay:10.37,2013-03-19 17:08:00,
2013-03-19 13:13:00,42.9,24.0,29.76,West,280,35.0,35.0,47,0.00,,,0.04,WeatherDisplay:10.37,2013-03-19 17:13:00,
2013-03-19 13:18:00,43.6,25.2,29.77,West,266,24.2,24.2,48,0.00,CLR,,0.04,WeatherDisplay:10.37,2013-03-19 17:18:00,
2013-03-19 13:23:00,43.1,25.2,29.77,West,275,35.7,35.7,49,0.00,,,0.04,WeatherDisplay:10.37,2013-03-19 17:23:00,
2013-03-19 13:28:00,43.0,25.6,29.78,WNW,296,26.5,26.5,50,0.00,CLR,,0.04,WeatherDisplay:10.37,2013-03-19 17:28:00,
2013-03-19 13:33:00,41.7,24.4,29.77,WNW,301,38.0,38.0,50,0.00,CLR,,0.04,WeatherDisplay:10.37,2013-03-19 17:33:00,
2013-03-19 13:38:00,41.9,24.1,29.78,WSW,256,36.0,36.0,49,0.00,CLR,,0.04,WeatherDisplay:10.37,2013-03-19 17:38:00,
2013-03-19 13:43:00,41.6,25.3,29.78,West,271,32.0,32.0,52,0.00,CLR,,0.04,WeatherDisplay:10.37,2013-03-19 17:43:00,
2013-03-19 13:48:00,41.6,24.8,29.78,West,280,32.2,32.2,51,0.00,,,0.04,WeatherDisplay:10.37,2013-03-19 17:48:00,
2013-03-19 13:53:00,41.6,23.8,29.79,West,276,30.0,30.0,49,0.00,CLR,,0.04,WeatherDisplay:10.37,2013-03-19 17:53:00,
2013-03-19 13:58:00,41.6,24.8,29.78,West,277,26.5,26.5,51,0.00,CLR,,0.04,WeatherDisplay:10.37,2013-03-19 17:58:00,
2013-03-19 14:03:00,41.6,24.3,29.78,West,260,35.0,35.0,50,0.00,CLR,,0.04,WeatherDisplay:10.37,2013-03-19 18:03:00,
2013-03-19 14:08:00,41.0,23.3,29.79,West,268,27.6,27.6,49,0.00,CLR,,0.04,WeatherDisplay:10.37,2013-03-19 18:08:00,
2013-03-19 14:13:00,40.9,23.7,29.79,West,264,24.2,24.2,50,0.00,,,0.04,WeatherDisplay:10.37,2013-03-19 18:13:00,
2013-03-19 14:18:00,41.1,24.3,29.79,WNW,294,31.1,31.1,51,0.00,,,0.04,WeatherDisplay:10.37,2013-03-19 18:18:00,
2013-03-19 14:23:00,40.5,22.8,29.79,West,269,23.0,23.0,49,0.00,CLR,,0.04,WeatherDisplay:10.37,2013-03-19 18:23:00,
2013-03-19 14:28:00,39.9,22.3,29.79,WSW,245,32.2,32.2,49,0.00,CLR,,0.04,WeatherDisplay:10.37,2013-03-19 18:28:00,
2013-03-19 14:33:00,40.2,23.0,29.79,West,259,31.0,31.0,50,0.00,CLR,,0.04,WeatherDisplay:10.37,2013-03-19 18:33:00,
2013-03-19 14:38:00,40.6,24.3,29.80,West,274,29.0,29.0,52,0.00,CLR,,0.04,WeatherDisplay:10.37,2013-03-19 18:38:00,
2013-03-19 14:43:00,40.4,22.7,29.79,NW,311,27.6,27.6,49,0.00,CLR,,0.04,WeatherDisplay:10.37,2013-03-19 18:43:00,
2013-03-19 14:48:00,40.2,23.5,29.79,WSW,253,24.2,24.2,51,0.00,CLR,,0.04,WeatherDisplay:10.37,2013-03-19 18:48:00,
2013-03-19 14:53:00,40.5,23.8,29.79,WSW,253,35.7,35.7,51,0.00,CLR,,0.04,WeatherDisplay:10.37,2013-03-19 18:53:00,
2013-03-19 14:58:00,41.1,24.8,29.79,West,275,33.0,33.0,52,0.00,CLR,,0.04,WeatherDisplay:10.37,2013-03-19 18:58:00,
2013-03-19 15:03:00,40.5,22.8,29.80,West,259,33.4,33.4,49,0.00,,,0.04,WeatherDisplay:10.37,2013-03-19 19:03:00,
2013-03-19 15:08:00,40.9,24.6,29.80,WSW,250,29.0,29.0,52,0.00,CLR,,0.04,WeatherDisplay:10.37,2013-03-19 19:08:00,
2013-03-19 15:13:00,40.1,21.0,29.80,NW,319,23.0,23.0,46,0.00,CLR,,0.04,WeatherDisplay:10.37,2013-03-19 19:13:00,
2013-03-19 15:18:00,40.0,22.4,29.81,WSW,241,32.0,32.0,49,0.00,,,0.04,WeatherDisplay:10.37,2013-03-19 19:18:00,
2013-03-19 15:23:00,39.6,20.0,29.81,WSW,250,30.0,30.0,45,0.00,CLR,,0.04,WeatherDisplay:10.37,2013-03-19 19:23:00,
2013-03-19 15:28:00,39.8,22.2,29.81,West,268,22.0,22.0,49,0.00,,,0.04,WeatherDisplay:10.37,2013-03-19 19:28:00,
2013-03-19 15:33:00,39.1,20.5,29.81,West,263,37.0,37.0,47,0.00,,,0.04,WeatherDisplay:10.37,2013-03-19 19:33:00,
2013-03-19 15:38:00,38.8,19.8,29.82,West,265,29.0,29.0,46,0.00,CLR,,0.04,WeatherDisplay:10.37,2013-03-19 19:38:00,
2013-03-19 15:43:00,38.8,21.7,29.83,NW,309,32.2,32.2,50,0.00,,,0.04,WeatherDisplay:10.37,2013-03-19 19:43:00,
2013-03-19 15:48:00,38.9,20.9,29.83,WNW,301,24.0,24.0,48,0.00,CLR,,0.04,WeatherDisplay:10.37,2013-03-19 19:48:00,
2013-03-19 15:53:00,38.6,22.5,29.83,WNW,286,30.0,30.0,52,0.00,CLR,,0.04,WeatherDisplay:10.37,2013-03-19 19:53:00,
2013-03-19 16:45:00,37.8,21.3,29.84,WSW,254,55.0,55.0,51,0.00,CLR,,0.04,WeatherDisplay:10.37,2013-03-19 20:45:00,
2013-03-19 16:50:00,38.0,21.0,29.84,WNW,302,32.2,32.2,50,0.00,CLR,,0.04,WeatherDisplay:10.37,2013-03-19 20:50:00,
2013-03-19 16:55:00,38.0,20.0,29.85,West,281,33.4,33.4,48,0.00,CLR,,0.04,WeatherDisplay:10.37,2013-03-19 20:55:00,
2013-03-19 17:00:00,37.3,19.4,29.85,NW,310,36.0,36.0,48,0.00,,,0.04,WeatherDisplay:10.37,2013-03-19 21:00:00,
2013-03-19 17:05:00,37.2,20.7,29.85,West,264,28.0,28.0,51,0.00,CLR,,0.04,WeatherDisplay:10.37,2013-03-19 21:05:00,
2013-03-19 17:10:00,37.1,19.7,29.85,WNW,294,21.9,21.9,49,0.00,CLR,,0.04,WeatherDisplay:10.37,2013-03-19 21:10:00,
2013-03-19 17:15:00,36.6,19.7,29.85,NW,317,23.0,23.0,50,0.00,CLR,,0.04,WeatherDisplay:10.37,2013-03-19 21:15:00,
2013-03-19 17:20:00,36.4,19.5,29.86,West,264,24.2,24.2,50,0.00,CLR,,0.04,WeatherDisplay:10.37,2013-03-19 21:20:00,
2013-03-19 17:25:00,36.4,19.5,29.86,West,265,28.0,28.0,50,0.00,,,0.04,WeatherDisplay:10.37,2013-03-19 21:25:00,
2013-03-19 17:30:00,36.1,20.2,29.87,WNW,292,34.5,34.5,52,0.00,CLR,,0.04,WeatherDisplay:10.37,2013-03-19 21:30:00,
2013-03-19 17:35:00,36.1,20.2,29.87,WSW,256,21.0,21.0,52,0.00,CLR,,0.04,WeatherDisplay:10.37,2013-03-19 21:35:00,
2013-03-19 17:40:00,36.1,20.6,29.87,NW,317,20.7,20.7,53,0.00,CLR,,0.04,WeatherDisplay:10.37,2013-03-19 21:40:00,
2013-03-19 17:45:00,36.0,20.1,29.87,West,281,24.0,24.0,52,0.00,CLR,,0.04,WeatherDisplay:10.37,2013-03-19 21:45:00,
2013-03-19 17:50:00,35.9,20.0,29.87,West,280,25.3,25.3,52,0.00,CLR,,0.04,WeatherDisplay:10.37,2013-03-19 21:50:00,
2013-03-19 17:55:00,35.7,20.2,29.87,WNW,296,9.2,9.2,53,0.00,CLR,,0.04,WeatherDisplay:10.37,2013-03-19 21:55:00,
2013-03-19 18:00:00,35.5,20.0,29.88,WSW,245,12.0,12.0,53,0.00,CLR,,0.04,WeatherDisplay:10.37,2013-03-19 22:00:00,
2013-03-19 18:05:00,35.4,19.9,29.88,WNW,294,16.1,16.1,53,0.00,CLR,,0.04,WeatherDisplay:10.37,2013-03-19 22:05:00,
2013-03-19 18:10:00,35.3,19.9,29.88,WNW,288,26.5,26.5,53,0.00,CLR,,0.04,WeatherDisplay:10.37,2013-03-19 22:10:00,
2013-03-19 18:15:00,35.1,19.7,29.88,West,276,21.9,21.9,53,0.00,CLR,,0.04,WeatherDisplay:10.37,2013-03-19 22:15:00,
2013-03-19 18:20:00,34.9,19.9,29.89,West,277,14.0,14.0,54,0.00,CLR,,0.04,WeatherDisplay:10.37,2013-03-19 22:20:00,
2013-03-19 18:25:00,34.9,19.9,29.89,WSW,252,19.6,19.6,54,0.00,CLR,,0.04,WeatherDisplay:10.37,2013-03-19 22:25:00,
2013-03-19 18:30:00,34.9,20.4,29.88,West,269,28.0,28.0,55,0.00,CLR,,0.04,WeatherDisplay:10.37,2013-03-19 22:30:00,
2013-03-19 18:35:00,34.7,20.6,29.89,West,265,24.2,24.2,56,0.00,CLR,,0.04,WeatherDisplay:10.37,2013-03-19 22:35:00,
2013-03-19 18:40:00,34.6,20.5,29.89,NW,319,16.1,16.1,56,0.00,CLR,,0.04,WeatherDisplay:10.37,2013-03-19 22:40:00,
2013-03-19 18:45:00,34.5,20.0,29.89,WNW,286,14.0,14.0,55,0.00,CLR,,0.04,WeatherDisplay:10.37,2013-03-19 22:45:00,
2013-03-19 18:50:00,34.4,19.5,29.90,WNW,298,23.0,23.0,54,0.00,CLR,,0.04,WeatherDisplay:10.37,2013-03-19 22:50:00,
2013-03-19 18:55:00,34.4,19.9,29.89,West,267,19.6,19.6,55,0.00,CLR,,0.04,WeatherDisplay:10.37,2013-03-19 22:55:00,
2013-03-19 19:00:00,34.4,19.9,29.89,West,268,19.0,19.0,55,0.00,CLR,,0.04,WeatherDisplay:10.37,2013-03-19 23:00:00,
2013-03-19 19:05:00,34.4,19.5,29.90,West,280,14.0,14.0,54,0.00,CLR,,0.04,WeatherDisplay:10.37,2013-03-19 23:05:00,
2013-03-19 19:10:00,34.4,19.5,29.90,West,265,7.0,7.0,54,0.00,CLR,,0.04,WeatherDisplay:10.37,2013-03-19 23:10:00,
2013-03-19 19:15:00,34.2,19.7,29.90,NW,304,15.0,15.0,55,0.00,CLR,,0.04,WeatherDisplay:10.37,2013-03-19 23:15:00,
2013-03-19 19:20:00,34.1,19.2,29.90,West,265,20.0,20.0,54,0.00,CLR,,0.04,WeatherDisplay:10.37,2013-03-19 23:20:00,
2013-03-19 19:25:00,34.1,19.6,29.90,WSW,252,21.0,21.0,55,0.00,CLR,,0.04,WeatherDisplay:10.37,2013-03-19 23:25:00,
2013-03-19 19:30:00,34.1,18.3,29.90,West,261,19.6,19.6,52,0.00,CLR,,0.04,WeatherDisplay:10.37,2013-03-19 23:30:00,
2013-03-19 19:35:00,34.1,19.2,29.91,WNW,288,29.0,29.0,54,0.00,CLR,,0.04,WeatherDisplay:10.37,2013-03-19 23:35:00,
2013-03-19 19:40:00,34.1,18.3,29.91,West,272,20.0,20.0,52,0.00,CLR,,0.04,WeatherDisplay:10.37,2013-03-19 23:40:00,
2013-03-19 19:45:00,34.1,18.3,29.91,WSW,258,22.0,22.0,52,0.00,CLR,,0.04,WeatherDisplay:10.37,2013-03-19 23:45:00,
2013-03-19 19:50:00,34.2,18.4,29.91,NNW,327,19.6,19.6,52,0.00,,,0.04,WeatherDisplay:10.37,2013-03-19 23:50:00,
2013-03-19 19:55:00,34.1,17.8,29.91,WNW,293,14.0,14.0,51,0.00,CLR,,0.04,WeatherDisplay:10.37,2013-03-19 23:55:00,
2013-03-19 20:00:00,34.1,17.8,29.91,NW,311,12.7,12.7,51,0.00,CLR,,0.04,WeatherDisplay:10.37,2013-03-20 00:00:00,
2013-03-19 20:05:00,33.9,18.1,29.91,NW,321,12.0,12.0,52,0.00,CLR,,0.04,WeatherDisplay:10.37,2013-03-20 00:05:00,
2013-03-19 20:10:00,33.7,17.9,29.92,North,360,15.0,15.0,52,0.00,CLR,,0.04,WeatherDisplay:10.37,2013-03-20 00:10:00,
2013-03-19 20:15:00,33.6,17.4,29.92,NNW,346,16.1,16.1,51,0.00,CLR,,0.04,WeatherDisplay:10.37,2013-03-20 00:15:00,
2013-03-19 20:20:00,33.4,17.2,29.91,WNW,286,27.0,27.0,51,0.00,CLR,,0.04,WeatherDisplay:10.37,2013-03-20 00:20:00,
2013-03-19 20:25:00,33.4,17.2,29.92,West,274,19.6,19.6,51,0.00,CLR,,0.04,WeatherDisplay:10.37,2013-03-20 00:25:00,
2013-03-19 20:30:00,33.3,17.5,29.92,North,355,17.3,17.3,52,0.00,CLR,,0.04,WeatherDisplay:10.37,2013-03-20 00:30:00,
2013-03-19 20:35:00,33.2,17.5,29.93,WNW,300,17.0,17.0,52,0.00,CLR,,0.04,WeatherDisplay:10.37,2013-03-20 00:35:00,
2013-03-19 20:40:00,33.2,17.5,29.93,WNW,287,17.3,17.3,52,0.00,CLR,,0.04,WeatherDisplay:10.37,2013-03-20 00:40:00,
2013-03-19 20:45:00,33.1,17.4,29.93,West,266,16.1,16.1,52,0.00,CLR,,0.04,WeatherDisplay:10.37,2013-03-20 00:45:00,
2013-03-19 20:50:00,32.9,17.2,29.94,WNW,290,13.0,13.0,52,0.00,CLR,,0.04,WeatherDisplay:10.37,2013-03-20 00:50:00,
2013-03-19 20:55:00,32.8,17.1,29.93,WNW,298,19.0,19.0,52,0.00,CLR,,0.04,WeatherDisplay:10.37,2013-03-20 00:55:00,
2013-03-19 21:00:00,32.6,16.9,29.94,West,265,18.0,18.0,52,0.00,CLR,,0.04,WeatherDisplay:10.37,2013-03-20 01:00:00,
2013-03-19 21:05:00,32.3,17.1,29.94,West,264,17.3,17.3,53,0.00,CLR,,0.04,WeatherDisplay:10.37,2013-03-20 01:05:00,
2013-03-19 21:10:00,32.1,16.9,29.94,WNW,286,19.6,19.6,53,0.00,CLR,,0.04,WeatherDisplay:10.37,2013-03-20 01:10:00,
2013-03-19 21:15:00,31.9,17.1,29.94,West,281,14.0,14.0,54,0.00,CLR,,0.04,WeatherDisplay:10.37,2013-03-20 01:15:00,
2013-03-19 21:20:00,31.8,16.6,29.95,SW,230,12.7,12.7,53,0.00,CLR,,0.04,WeatherDisplay:10.37,2013-03-20 01:20:00,
2013-03-19 21:25:00,31.6,17.3,29.95,North,350,17.3,17.3,55,0.00,CLR,,0.04,WeatherDisplay:10.37,2013-03-20 01:25:00,
2013-03-19 21:30:00,31.5,16.7,29.95,West,277,21.0,21.0,54,0.00,CLR,,0.04,WeatherDisplay:10.37,2013-03-20 01:30:00,
2013-03-19 21:35:00,31.4,16.7,29.95,West,271,18.4,18.4,54,0.00,CLR,,0.04,WeatherDisplay:10.37,2013-03-20 01:35:00,
2013-03-19 21:40:00,31.2,16.9,29.95,West,281,11.0,11.0,55,0.00,CLR,,0.04,WeatherDisplay:10.37,2013-03-20 01:40:00,
2013-03-19 21:45:00,31.0,16.7,29.96,West,264,11.0,11.0,55,0.00,CLR,,0.04,WeatherDisplay:10.37,2013-03-20 01:45:00,
2013-03-19 21:50:00,31.0,16.7,29.95,WSW,244,13.8,13.8,55,0.00,CLR,,0.04,WeatherDisplay:10.37,2013-03-20 01:50:00,
2013-03-19 21:55:00,30.9,17.0,29.96,West,279,19.6,19.6,56,0.00,CLR,,0.04,WeatherDisplay:10.37,2013-03-20 01:55:00,
2013-03-19 22:00:00,30.8,16.9,29.96,WNW,302,13.0,13.0,56,0.00,CLR,,0.04,WeatherDisplay:10.37,2013-03-20 02:00:00,
2013-03-19 22:05:00,30.8,16.9,29.96,WNW,295,16.0,16.0,56,0.00,CLR,,0.04,WeatherDisplay:10.37,2013-03-20 02:05:00,
2013-03-19 22:10:00,30.8,16.9,29.96,WNW,284,15.0,15.0,56,0.00,CLR,,0.04,WeatherDisplay:10.37,2013-03-20 02:10:00,
2013-03-19 22:15:00,30.6,16.7,29.97,WNW,291,18.0,18.0,56,0.00,CLR,,0.04,WeatherDisplay:10.37,2013-03-20 02:15:00,
2013-03-19 22:20:00,30.6,17.2,29.96,WNW,300,19.6,19.6,57,0.00,CLR,,0.04,WeatherDisplay:10.37,2013-03-20 02:20:00,
2013-03-19 22:25:00,30.6,17.2,29.96,West,267,19.6,19.6,57,0.00,CLR,,0.04,WeatherDisplay:10.37,2013-03-20 02:25:00,
2013-03-19 22:30:00,30.5,17.5,29.97,NW,309,19.6,19.6,58,0.00,CLR,,0.04,WeatherDisplay:10.37,2013-03-20 02:30:00,
2013-03-19 22:35:00,30.5,17.5,29.97,West,265,16.1,16.1,58,0.00,CLR,,0.04,WeatherDisplay:10.37,2013-03-20 02:35:00,
2013-03-19 22:40:00,30.3,17.3,29.97,West,265,12.0,12.0,58,0.00,CLR,,0.04,WeatherDisplay:10.37,2013-03-20 02:40:00,
2013-03-19 22:45:00,30.2,17.2,29.97,WSW,256,13.0,13.0,58,0.00,CLR,,0.04,WeatherDisplay:10.37,2013-03-20 02:45:00,
2013-03-19 22:50:00,30.2,17.6,29.97,SW,236,13.8,13.8,59,0.00,CLR,,0.04,WeatherDisplay:10.37,2013-03-20 02:50:00,
2013-03-19 22:55:00,30.0,17.8,29.97,West,261,10.4,10.4,60,0.00,CLR,,0.04,WeatherDisplay:10.37,2013-03-20 02:55:00,
2013-03-19 23:00:00,30.0,17.4,29.96,West,263,13.0,13.0,59,0.00,CLR,,0.04,WeatherDisplay:10.37,2013-03-20 03:00:00,
2013-03-19 23:05:00,29.9,17.7,29.96,NW,305,11.0,11.0,60,0.00,CLR,,0.04,WeatherDisplay:10.37,2013-03-20 03:05:00,
2013-03-19 23:10:00,29.9,17.7,29.97,West,261,13.0,13.0,60,0.00,CLR,,0.04,WeatherDisplay:10.37,2013-03-20 03:10:00,
2013-03-19 23:15:00,29.9,17.7,29.97,WSW,257,14.0,14.0,60,0.00,CLR,,0.04,WeatherDisplay:10.37,2013-03-20 03:15:00,
2013-03-19 23:20:00,29.8,17.6,29.97,WSW,246,15.0,15.0,60,0.00,CLR,,0.04,WeatherDisplay:10.37,2013-03-20 03:20:00,
2013-03-19 23:25:00,29.7,17.9,29.97,West,260,11.0,11.0,61,0.00,CLR,,0.04,WeatherDisplay:10.37,2013-03-20 03:25:00,
2013-03-19 23:30:00,29.6,17.8,29.97,West,269,11.5,11.5,61,0.00,CLR,,0.04,WeatherDisplay:10.37,2013-03-20 03:30:00,
2013-03-19 23:35:00,29.7,17.5,29.97,West,272,11.0,11.0,60,0.00,CLR,,0.04,WeatherDisplay:10.37,2013-03-20 03:35:00,
2013-03-19 23:40:00,29.6,17.8,29.97,West,263,9.2,9.2,61,0.00,CLR,,0.04,WeatherDisplay:10.37,2013-03-20 03:40:00,
2013-03-19 23:45:00,29.4,17.6,29.97,West,268,9.2,9.2,61,0.00,CLR,,0.04,WeatherDisplay:10.37,2013-03-20 03:45:00,
2013-03-19 23:50:00,29.3,17.9,29.97,West,259,11.5,11.5,62,0.00,CLR,,0.04,WeatherDisplay:10.37,2013-03-20 03:50:00,
2013-03-19 23:55:00,29.3,17.9,29.97,West,270,12.0,12.0,62,0.00,CLR,,0.04,WeatherDisplay:10.37,2013-03-20 03:55:00,